sensor_id;sensor_type;location;lat;lon;timestamp;P1;P2;P0
57373;PMS7003;43964;53.890;25.340;2023-02-15T00:01:25;0;0;0
57373;PMS7003;43964;53.890;25.340;2023-02-15T00:06:43;0.2;0;0
57373;PMS7003;43964;53.890;25.340;2023-02-15T00:11:27;1;0.4;0.2
57373;PMS7003;43964;53.890;25.340;2023-02-15T00:16:38;1.8;1;0.4
57373;PMS7003;43964;53.890;25.340;2023-02-15T00:21:37;0.6;0.4;0.2
57373;PMS7003;43964;53.890;25.340;2023-02-15T00:26:25;1.3;0.7;0.7
57373;PMS7003;43964;53.890;25.340;2023-02-15T00:31:59;0.3;0.3;0.3
57373;PMS7003;43964;53.890;25.340;2023-02-15T00:36:57;0.5;0.3;0
57373;PMS7003;43964;53.890;25.340;2023-02-15T00:41:33;0.3;0.3;0
57373;PMS7003;43964;53.890;25.340;2023-02-15T00:46:59;0;0;0
57373;PMS7003;43964;53.890;25.340;2023-02-15T00:51:59;0.4;0.4;0
57373;PMS7003;43964;53.890;25.340;2023-02-15T00:56:37;0;0;0
57373;PMS7003;43964;53.890;25.340;2023-02-15T01:01:14;0;0;0
57373;PMS7003;43964;53.890;25.340;2023-02-15T01:06:59;0;0;0
57373;PMS7003;43964;53.890;25.340;2023-02-15T01:11:14;0;0;0
57373;PMS7003;43964;53.890;25.340;2023-02-15T01:16:45;0;0;0
57373;PMS7003;43964;53.890;25.340;2023-02-15T01:21:25;0.2;0.2;0.2
57373;PMS7003;43964;53.890;25.340;2023-02-15T01:26:47;0.3;0;0
57373;PMS7003;43964;53.890;25.340;2023-02-15T01:31:49;0.3;0;0
57373;PMS7003;43964;53.890;25.340;2023-02-15T01:36:43;0.3;0.3;0
57373;PMS7003;43964;53.890;25.340;2023-02-15T01:41:59;0;0;0
57373;PMS7003;43964;53.890;25.340;2023-02-15T01:46:14;0;0;0
57373;PMS7003;43964;53.890;25.340;2023-02-15T01:51:22;0;0;0
57373;PMS7003;43964;53.890;25.340;2023-02-15T01:56:14;0.2;0;0
57373;PMS7003;43964;53.890;25.340;2023-02-15T02:01:49;0;0;0
57373;PMS7003;43964;53.890;25.340;2023-02-15T02:06:13;0.2;0;0
57373;PMS7003;43964;53.890;25.340;2023-02-15T02:11:13;0.2;0;0
57373;PMS7003;43964;53.890;25.340;2023-02-15T02:16:48;0;0;0
57373;PMS7003;43964;53.890;25.340;2023-02-15T02:21:54;0;0;0
57373;PMS7003;43964;53.890;25.340;2023-02-15T02:27:04;0.3;0;0
57373;PMS7003;43964;53.890;25.340;2023-02-15T02:31:43;0.8;0.5;0
57373;PMS7003;43964;53.890;25.340;2023-02-15T02:37:00;0;0;0
57373;PMS7003;43964;53.890;25.340;2023-02-15T02:41:32;0;0;0
57373;PMS7003;43964;53.890;25.340;2023-02-15T02:46:52;0;0;0
57373;PMS7003;43964;53.890;25.340;2023-02-15T02:51:13;0.3;0.3;0
57373;PMS7003;43964;53.890;25.340;2023-02-15T02:56:51;0;0;0
57373;PMS7003;43964;53.890;25.340;2023-02-15T03:01:29;8.8;7.5;3.5
57373;PMS7003;43964;53.890;25.340;2023-02-15T03:06:39;10;8;5
57373;PMS7003;43964;53.890;25.340;2023-02-15T03:11:45;3.6;3.2;2
57373;PMS7003;43964;53.890;25.340;2023-02-15T03:16:13;1.3;0.3;0
57373;PMS7003;43964;53.890;25.340;2023-02-15T03:22:03;1;1;0.7
57373;PMS7003;43964;53.890;25.340;2023-02-15T03:26:36;0.2;0.2;0
57373;PMS7003;43964;53.890;25.340;2023-02-15T03:32:00;0.3;0;0
57373;PMS7003;43964;53.890;25.340;2023-02-15T03:36:42;0.3;0.3;0
57373;PMS7003;43964;53.890;25.340;2023-02-15T03:41:45;0;0;0
57373;PMS7003;43964;53.890;25.340;2023-02-15T03:46:15;0.4;0.2;0
57373;PMS7003;43964;53.890;25.340;2023-02-15T03:51:50;0.4;0.2;0
57373;PMS7003;43964;53.890;25.340;2023-02-15T03:56:25;0.8;0.4;0
57373;PMS7003;43964;53.890;25.340;2023-02-15T04:01:45;1.4;0.4;0
57373;PMS7003;43964;53.890;25.340;2023-02-15T04:06:43;0.8;0.8;0.4
57373;PMS7003;43964;53.890;25.340;2023-02-15T04:11:57;1.8;1.2;0.6
57373;PMS7003;43964;53.890;25.340;2023-02-15T04:16:59;1.4;1;0.2
57373;PMS7003;43964;53.890;25.340;2023-02-15T04:21:45;1.4;1;0.4
57373;PMS7003;43964;53.890;25.340;2023-02-15T04:26:58;0.2;0.2;0.2
57373;PMS7003;43964;53.890;25.340;2023-02-15T04:31:13;0.6;0.4;0
57373;PMS7003;43964;53.890;25.340;2023-02-15T04:36:25;0;0;0
57373;PMS7003;43964;53.890;25.340;2023-02-15T04:41:49;0.2;0;0
57373;PMS7003;43964;53.890;25.340;2023-02-15T04:46:51;0.4;0;0
57373;PMS7003;43964;53.890;25.340;2023-02-15T04:51:39;0.2;0.2;0
57373;PMS7003;43964;53.890;25.340;2023-02-15T04:56:59;0.6;0.2;0
57373;PMS7003;43964;53.890;25.340;2023-02-15T05:01:37;1;0.6;0
57373;PMS7003;43964;53.890;25.340;2023-02-15T05:06:59;1.6;1;0.6
57373;PMS7003;43964;53.890;25.340;2023-02-15T05:11:47;1.4;1;0.2
57373;PMS7003;43964;53.890;25.340;2023-02-15T05:16:37;0.6;0.4;0
57373;PMS7003;43964;53.890;25.340;2023-02-15T05:21:37;0.4;0.2;0
57373;PMS7003;43964;53.890;25.340;2023-02-15T05:26:15;0.6;0.2;0.2
57373;PMS7003;43964;53.890;25.340;2023-02-15T05:31:25;0.2;0.2;0
57373;PMS7003;43964;53.890;25.340;2023-02-15T05:36:25;0.8;0.3;0
57373;PMS7003;43964;53.890;25.340;2023-02-15T05:41:43;1.2;0.8;0.2
57373;PMS7003;43964;53.890;25.340;2023-02-15T05:46:39;0.2;0.2;0
57373;PMS7003;43964;53.890;25.340;2023-02-15T05:51:57;1.2;0.8;0.4
57373;PMS7003;43964;53.890;25.340;2023-02-15T05:56:25;1;1;0.2
57373;PMS7003;43964;53.890;25.340;2023-02-15T06:01:45;1.2;1;0.2
57373;PMS7003;43964;53.890;25.340;2023-02-15T06:06:51;1.4;0.4;0
57373;PMS7003;43964;53.890;25.340;2023-02-15T06:11:25;1.4;1;0.4
57373;PMS7003;43964;53.890;25.340;2023-02-15T06:16:37;2.6;2;0.8
57373;PMS7003;43964;53.890;25.340;2023-02-15T06:21:40;3.6;1.8;0.8
57373;PMS7003;43964;53.890;25.340;2023-02-15T06:27:01;1.5;1.5;1.3
57373;PMS7003;43964;53.890;25.340;2023-02-15T06:31:57;2.3;2;1
57373;PMS7003;43964;53.890;25.340;2023-02-15T06:36:31;1.7;1.3;0.7
57373;PMS7003;43964;53.890;25.340;2023-02-15T06:41:13;2.5;1.8;0.8
57373;PMS7003;43964;53.890;25.340;2023-02-15T06:47:01;1;0.7;0
57373;PMS7003;43964;53.890;25.340;2023-02-15T06:51:37;0.5;0.3;0
57373;PMS7003;43964;53.890;25.340;2023-02-15T06:56:46;0.8;0.8;0
57373;PMS7003;43964;53.890;25.340;2023-02-15T07:01:37;0.5;0.5;0
57373;PMS7003;43964;53.890;25.340;2023-02-15T07:06:13;1;0.7;0
57373;PMS7003;43964;53.890;25.340;2023-02-15T07:11:37;2;1.5;0.5
57373;PMS7003;43964;53.890;25.340;2023-02-15T07:16:13;1;1;0.6
57373;PMS7003;43964;53.890;25.340;2023-02-15T07:21:57;1.4;1;0.2
57373;PMS7003;43964;53.890;25.340;2023-02-15T07:26:53;1;0.6;0
57373;PMS7003;43964;53.890;25.340;2023-02-15T07:31:33;2.2;1.2;0.6
57373;PMS7003;43964;53.890;25.340;2023-02-15T07:36:59;0.8;0.6;0.2
57373;PMS7003;43964;53.890;25.340;2023-02-15T07:41:59;1.6;0.8;0.2
57373;PMS7003;43964;53.890;25.340;2023-02-15T07:46:37;0.6;0.6;0.2
57373;PMS7003;43964;53.890;25.340;2023-02-15T07:51:21;1;0.7;0
57373;PMS7003;43964;53.890;25.340;2023-02-15T07:56:51;1.3;1;0.3
57373;PMS7003;43964;53.890;25.340;2023-02-15T08:01:14;0.3;0.3;0
57373;PMS7003;43964;53.890;25.340;2023-02-15T08:06:24;0.4;0.4;0
57373;PMS7003;43964;53.890;25.340;2023-02-15T08:11:37;0;0;0
57373;PMS7003;43964;53.890;25.340;2023-02-15T08:16:46;1;0.3;0
57373;PMS7003;43964;53.890;25.340;2023-02-15T08:21:50;0;0;0
57373;PMS7003;43964;53.890;25.340;2023-02-15T08:26:47;0.5;0.5;0
57373;PMS7003;43964;53.890;25.340;2023-02-15T08:31:56;1.2;0.6;0.4
57373;PMS7003;43964;53.890;25.340;2023-02-15T08:36:26;0.5;0.3;0
57373;PMS7003;43964;53.890;25.340;2023-02-15T08:41:49;0.6;0.6;0.2
57373;PMS7003;43964;53.890;25.340;2023-02-15T08:46:48;0.2;0.2;0
57373;PMS7003;43964;53.890;25.340;2023-02-15T08:51:51;0;0;0
57373;PMS7003;43964;53.890;25.340;2023-02-15T08:56:22;0.5;0.3;0
57373;PMS7003;43964;53.890;25.340;2023-02-15T09:01:35;0.3;0.3;0.3
57373;PMS7003;43964;53.890;25.340;2023-02-15T09:06:33;0;0;0
57373;PMS7003;43964;53.890;25.340;2023-02-15T09:11:36;0;0;0
57373;PMS7003;43964;53.890;25.340;2023-02-15T09:16:59;0;0;0
57373;PMS7003;43964;53.890;25.340;2023-02-15T09:21:14;0.2;0.2;0
57373;PMS7003;43964;53.890;25.340;2023-02-15T09:26:57;0.2;0.2;0
57373;PMS7003;43964;53.890;25.340;2023-02-15T09:31:26;0;0;0
57373;PMS7003;43964;53.890;25.340;2023-02-15T09:36:48;0.8;0.4;0
57373;PMS7003;43964;53.890;25.340;2023-02-15T09:41:20;1;1;0.3
57373;PMS7003;43964;53.890;25.340;2023-02-15T09:46:57;1.3;1;0.5
57373;PMS7003;43964;53.890;25.340;2023-02-15T09:51:31;1.3;1.3;0.7
57373;PMS7003;43964;53.890;25.340;2023-02-15T09:56:14;3.2;2.4;1
57373;PMS7003;43964;53.890;25.340;2023-02-15T10:01:50;2.3;1.5;0.5
57373;PMS7003;43964;53.890;25.340;2023-02-15T10:06:55;1.6;1;0.2
57373;PMS7003;43964;53.890;25.340;2023-02-15T10:12:06;0;0;0
57373;PMS7003;43964;53.890;25.340;2023-02-15T10:16:50;0.4;0.2;0
57373;PMS7003;43964;53.890;25.340;2023-02-15T10:22:04;0.6;0;0
57373;PMS7003;43964;53.890;25.340;2023-02-15T10:26:16;1.3;1;0.5
57373;PMS7003;43964;53.890;25.340;2023-02-15T10:31:47;1.8;0.6;0.2
57373;PMS7003;43964;53.890;25.340;2023-02-15T10:36:18;0.7;0.3;0
57373;PMS7003;43964;53.890;25.340;2023-02-15T10:41:53;1;0.3;0
57373;PMS7003;43964;53.890;25.340;2023-02-15T10:46:33;0.8;0.2;0
57373;PMS7003;43964;53.890;25.340;2023-02-15T10:51:39;0.6;0.2;0
57373;PMS7003;43964;53.890;25.340;2023-02-15T10:56:51;0.4;0.4;0
57373;PMS7003;43964;53.890;25.340;2023-02-15T11:02:03;0.8;0.4;0
57373;PMS7003;43964;53.890;25.340;2023-02-15T11:07:02;0;0;0
57373;PMS7003;43964;53.890;25.340;2023-02-15T11:11:48;0.5;0.3;0
57373;PMS7003;43964;53.890;25.340;2023-02-15T11:17:02;0.3;0;0
57373;PMS7003;43964;53.890;25.340;2023-02-15T11:21:26;0;0;0
57373;PMS7003;43964;53.890;25.340;2023-02-15T11:26:48;1.3;0.3;0
57373;PMS7003;43964;53.890;25.340;2023-02-15T11:31:41;0;0;0
57373;PMS7003;43964;53.890;25.340;2023-02-15T11:36:49;0.3;0.3;0
57373;PMS7003;43964;53.890;25.340;2023-02-15T11:41:40;0.3;0;0
57373;PMS7003;43964;53.890;25.340;2023-02-15T11:47:01;0.5;0;0
57373;PMS7003;43964;53.890;25.340;2023-02-15T11:51:37;1;1;0.3
57373;PMS7003;43964;53.890;25.340;2023-02-15T11:57:04;0.7;0.7;0.3
57373;PMS7003;43964;53.890;25.340;2023-02-15T12:01:46;1.4;1.4;0.6
57373;PMS7003;43964;53.890;25.340;2023-02-15T12:06:38;1.3;1;0
57373;PMS7003;43964;53.890;25.340;2023-02-15T12:11:25;0.7;0.7;0.3
57373;PMS7003;43964;53.890;25.340;2023-02-15T12:16:13;1;0.7;0
57373;PMS7003;43964;53.890;25.340;2023-02-15T12:21:43;2;1.2;0.4
57373;PMS7003;43964;53.890;25.340;2023-02-15T12:26:26;2;1.4;0.6
57373;PMS7003;43964;53.890;25.340;2023-02-15T12:31:36;1;1;0.5
57373;PMS7003;43964;53.890;25.340;2023-02-15T12:36:41;0;0;0
57373;PMS7003;43964;53.890;25.340;2023-02-15T12:42:03;0.6;0.4;0.2
57373;PMS7003;43964;53.890;25.340;2023-02-15T12:46:37;0.6;0.2;0.2
57373;PMS7003;43964;53.890;25.340;2023-02-15T12:51:48;0.3;0.3;0
57373;PMS7003;43964;53.890;25.340;2023-02-15T12:56:27;0.5;0.5;0
57373;PMS7003;43964;53.890;25.340;2023-02-15T13:01:14;0.3;0;0
57373;PMS7003;43964;53.890;25.340;2023-02-15T13:06:21;0.3;0.3;0
57373;PMS7003;43964;53.890;25.340;2023-02-15T13:11:13;0.4;0.2;0
57373;PMS7003;43964;53.890;25.340;2023-02-15T13:17:03;0.5;0.5;0
57373;PMS7003;43964;53.890;25.340;2023-02-15T13:22:05;0.6;0;0
57373;PMS7003;43964;53.890;25.340;2023-02-15T13:26:14;0.2;0.2;0
57373;PMS7003;43964;53.890;25.340;2023-02-15T13:32:05;0.4;0.4;0
57373;PMS7003;43964;53.890;25.340;2023-02-15T13:37:04;0;0;0
57373;PMS7003;43964;53.890;25.340;2023-02-15T13:41:44;0.2;0.2;0
57373;PMS7003;43964;53.890;25.340;2023-02-15T13:46:47;0.4;0.4;0
57373;PMS7003;43964;53.890;25.340;2023-02-15T13:51:52;1.8;1;0.3
57373;PMS7003;43964;53.890;25.340;2023-02-15T13:56:27;1.6;1.4;0.6
57373;PMS7003;43964;53.890;25.340;2023-02-15T14:01:25;1.6;1.2;0.6
57373;PMS7003;43964;53.890;25.340;2023-02-15T14:06:31;1.8;1.4;0.8
57373;PMS7003;43964;53.890;25.340;2023-02-15T14:11:54;1.2;0.6;0.2
57373;PMS7003;43964;53.890;25.340;2023-02-15T14:16:54;0.4;0.4;0
57373;PMS7003;43964;53.890;25.340;2023-02-15T14:21:37;0.4;0.4;0
57373;PMS7003;43964;53.890;25.340;2023-02-15T14:27:07;1.8;1.4;0.8
57373;PMS7003;43964;53.890;25.340;2023-02-15T14:31:37;1.4;1.2;0.4
57373;PMS7003;43964;53.890;25.340;2023-02-15T14:36:51;2.4;1.8;1
57373;PMS7003;43964;53.890;25.340;2023-02-15T14:41:44;2.4;2;1
57373;PMS7003;43964;53.890;25.340;2023-02-15T14:47:04;1.8;1.8;0.4
57373;PMS7003;43964;53.890;25.340;2023-02-15T14:52:00;3;2;1
57373;PMS7003;43964;53.890;25.340;2023-02-15T14:56:27;1.4;1.4;0.4
57373;PMS7003;43964;53.890;25.340;2023-02-15T15:01:40;0.8;0.4;0
57373;PMS7003;43964;53.890;25.340;2023-02-15T15:06:56;0.2;0.2;0
57373;PMS7003;43964;53.890;25.340;2023-02-15T15:11:42;0;0;0
57373;PMS7003;43964;53.890;25.340;2023-02-15T15:16:30;0;0;0
57373;PMS7003;43964;53.890;25.340;2023-02-15T15:22:05;0.2;0;0
57373;PMS7003;43964;53.890;25.340;2023-02-15T15:26:37;0;0;0
57373;PMS7003;43964;53.890;25.340;2023-02-15T15:31:53;0;0;0
57373;PMS7003;43964;53.890;25.340;2023-02-15T15:36:20;0.2;0.2;0
57373;PMS7003;43964;53.890;25.340;2023-02-15T15:41:52;0;0;0
57373;PMS7003;43964;53.890;25.340;2023-02-15T15:46:33;0.2;0;0
57373;PMS7003;43964;53.890;25.340;2023-02-15T15:51:25;0.3;0;0
57373;PMS7003;43964;53.890;25.340;2023-02-15T15:56:52;0.2;0;0
57373;PMS7003;43964;53.890;25.340;2023-02-15T16:01:49;0.2;0.2;0
57373;PMS7003;43964;53.890;25.340;2023-02-15T16:07:35;0;0;0
57373;PMS7003;43964;53.890;25.340;2023-02-15T16:11:35;0.4;0;0
57373;PMS7003;43964;53.890;25.340;2023-02-15T16:17:02;0.6;0;0
57373;PMS7003;43964;53.890;25.340;2023-02-15T16:21:30;0.4;0.4;0
57373;PMS7003;43964;53.890;25.340;2023-02-15T16:26:54;0.6;0.4;0
57373;PMS7003;43964;53.890;25.340;2023-02-15T16:31:39;0.4;0;0
57373;PMS7003;43964;53.890;25.340;2023-02-15T16:36:51;0.4;0.4;0
57373;PMS7003;43964;53.890;25.340;2023-02-15T16:41:28;0.2;0.2;0
57373;PMS7003;43964;53.890;25.340;2023-02-15T16:46:50;0.8;0.6;0
57373;PMS7003;43964;53.890;25.340;2023-02-15T16:51:54;0;0;0
57373;PMS7003;43964;53.890;25.340;2023-02-15T16:57:03;0.5;0;0
57373;PMS7003;43964;53.890;25.340;2023-02-15T17:02:04;0.4;0.2;0
57373;PMS7003;43964;53.890;25.340;2023-02-15T17:06:57;0.4;0.2;0
57373;PMS7003;43964;53.890;25.340;2023-02-15T17:12:01;0;0;0
57373;PMS7003;43964;53.890;25.340;2023-02-15T17:16:52;0.4;0.2;0.2
57373;PMS7003;43964;53.890;25.340;2023-02-15T17:21:40;0;0;0
57373;PMS7003;43964;53.890;25.340;2023-02-15T17:26:36;0;0;0
57373;PMS7003;43964;53.890;25.340;2023-02-15T17:31:50;0.4;0.2;0
57373;PMS7003;43964;53.890;25.340;2023-02-15T17:36:56;0.8;0.4;0
57373;PMS7003;43964;53.890;25.340;2023-02-15T17:42:03;0.4;0.4;0
57373;PMS7003;43964;53.890;25.340;2023-02-15T17:46:25;1;0.6;0
57373;PMS7003;43964;53.890;25.340;2023-02-15T17:52:05;1;0.8;0.2
57373;PMS7003;43964;53.890;25.340;2023-02-15T17:56:47;0.5;0;0
57373;PMS7003;43964;53.890;25.340;2023-02-15T18:01:14;1.2;0.8;0.4
57373;PMS7003;43964;53.890;25.340;2023-02-15T18:06:13;0.4;0.2;0
57373;PMS7003;43964;53.890;25.340;2023-02-15T18:11:27;0.2;0.2;0
57373;PMS7003;43964;53.890;25.340;2023-02-15T18:16:41;0.2;0.2;0.2
57373;PMS7003;43964;53.890;25.340;2023-02-15T18:21:51;0.4;0.4;0
57373;PMS7003;43964;53.890;25.340;2023-02-15T18:26:16;0.4;0.4;0
57373;PMS7003;43964;53.890;25.340;2023-02-15T18:31:39;0.6;0.2;0
57373;PMS7003;43964;53.890;25.340;2023-02-15T18:37:04;1.2;0.2;0
57373;PMS7003;43964;53.890;25.340;2023-02-15T18:41:15;0.8;0.6;0.4
57373;PMS7003;43964;53.890;25.340;2023-02-15T18:46:49;0.4;0.4;0
57373;PMS7003;43964;53.890;25.340;2023-02-15T18:51:39;1.2;0.8;0.4
57373;PMS7003;43964;53.890;25.340;2023-02-15T18:56:29;0.5;0.5;0.3
57373;PMS7003;43964;53.890;25.340;2023-02-15T19:01:23;1.4;1;0.4
57373;PMS7003;43964;53.890;25.340;2023-02-15T19:06:25;0.6;0.4;0.2
57373;PMS7003;43964;53.890;25.340;2023-02-15T19:11:48;1.4;0.6;0
57373;PMS7003;43964;53.890;25.340;2023-02-15T19:16:30;0.8;0.6;0.2
57373;PMS7003;43964;53.890;25.340;2023-02-15T19:21:35;0.4;0.4;0.2
57373;PMS7003;43964;53.890;25.340;2023-02-15T19:26:41;1.2;0.4;0
57373;PMS7003;43964;53.890;25.340;2023-02-15T19:32:03;0.6;0.6;0.2
57373;PMS7003;43964;53.890;25.340;2023-02-15T19:36:40;0.6;0.2;0
57373;PMS7003;43964;53.890;25.340;2023-02-15T19:41:49;0;0;0
57373;PMS7003;43964;53.890;25.340;2023-02-15T19:46:41;0;0;0
57373;PMS7003;43964;53.890;25.340;2023-02-15T19:51:13;0.5;0.3;0
57373;PMS7003;43964;53.890;25.340;2023-02-15T19:56:37;0.5;0.3;0
57373;PMS7003;43964;53.890;25.340;2023-02-15T20:01:23;1;0.3;0.3
57373;PMS7003;43964;53.890;25.340;2023-02-15T20:07:03;1;0.3;0
57373;PMS7003;43964;53.890;25.340;2023-02-15T20:12:19;0.3;0.3;0
57373;PMS7003;43964;53.890;25.340;2023-02-15T20:16:39;0.5;0.5;0.3
57373;PMS7003;43964;53.890;25.340;2023-02-15T20:22:03;0;0;0
57373;PMS7003;43964;53.890;25.340;2023-02-15T20:27:08;0.3;0.3;0
57373;PMS7003;43964;53.890;25.340;2023-02-15T20:31:23;0.7;0.3;0.3
57373;PMS7003;43964;53.890;25.340;2023-02-15T20:36:14;0.2;0.2;0
57373;PMS7003;43964;53.890;25.340;2023-02-15T20:42:01;0;0;0
57373;PMS7003;43964;53.890;25.340;2023-02-15T20:46:13;0.2;0;0
57373;PMS7003;43964;53.890;25.340;2023-02-15T20:51:41;0;0;0
57373;PMS7003;43964;53.890;25.340;2023-02-15T20:56:51;0.3;0;0
57373;PMS7003;43964;53.890;25.340;2023-02-15T21:01:47;0;0;0
57373;PMS7003;43964;53.890;25.340;2023-02-15T21:07:01;1;1;0
57373;PMS7003;43964;53.890;25.340;2023-02-15T21:11:39;0.2;0;0
57373;PMS7003;43964;53.890;25.340;2023-02-15T21:17:05;0.8;0.6;0.2
57373;PMS7003;43964;53.890;25.340;2023-02-15T21:21:27;0;0;0
57373;PMS7003;43964;53.890;25.340;2023-02-15T21:26:37;0.2;0.2;0
57373;PMS7003;43964;53.890;25.340;2023-02-15T21:32:01;0.4;0.4;0
57373;PMS7003;43964;53.890;25.340;2023-02-15T21:36:40;0.8;0;0
57373;PMS7003;43964;53.890;25.340;2023-02-15T21:41:14;0.4;0.2;0.2
57373;PMS7003;43964;53.890;25.340;2023-02-15T21:46:39;0;0;0
57373;PMS7003;43964;53.890;25.340;2023-02-15T21:51:47;0.2;0.2;0.2
57373;PMS7003;43964;53.890;25.340;2023-02-15T21:56:51;0.6;0;0
57373;PMS7003;43964;53.890;25.340;2023-02-15T22:01:48;0.2;0.2;0
57373;PMS7003;43964;53.890;25.340;2023-02-15T22:06:13;0.4;0.4;0
57373;PMS7003;43964;53.890;25.340;2023-02-15T22:12:01;0;0;0
57373;PMS7003;43964;53.890;25.340;2023-02-15T22:16:14;0.4;0.2;0
57373;PMS7003;43964;53.890;25.340;2023-02-15T22:21:51;0.4;0;0
57373;PMS7003;43964;53.890;25.340;2023-02-15T22:26:53;0;0;0
57373;PMS7003;43964;53.890;25.340;2023-02-15T22:31:51;0.4;0.2;0
57373;PMS7003;43964;53.890;25.340;2023-02-15T22:36:49;0.4;0.4;0.2
57373;PMS7003;43964;53.890;25.340;2023-02-15T22:41:50;1.2;0.2;0
57373;PMS7003;43964;53.890;25.340;2023-02-15T22:46:25;0.2;0.2;0
57373;PMS7003;43964;53.890;25.340;2023-02-15T22:52:08;0.2;0.2;0
57373;PMS7003;43964;53.890;25.340;2023-02-15T22:57:07;0.6;0.2;0
57373;PMS7003;43964;53.890;25.340;2023-02-15T23:01:27;0;0;0
57373;PMS7003;43964;53.890;25.340;2023-02-15T23:07:04;1;0.6;0
57373;PMS7003;43964;53.890;25.340;2023-02-15T23:11:13;0.6;0.4;0
57373;PMS7003;43964;53.890;25.340;2023-02-15T23:16:49;1.2;1.2;0
57373;PMS7003;43964;53.890;25.340;2023-02-15T23:21:28;0.6;0.4;0.2
57373;PMS7003;43964;53.890;25.340;2023-02-15T23:26:52;0;0;0
57373;PMS7003;43964;53.890;25.340;2023-02-15T23:31:40;0.4;0.4;0
57373;PMS7003;43964;53.890;25.340;2023-02-15T23:37:03;0.2;0;0
57373;PMS7003;43964;53.890;25.340;2023-02-15T23:41:26;0.8;0.2;0
57373;PMS7003;43964;53.890;25.340;2023-02-15T23:47:03;1;0.6;0
57373;PMS7003;43964;53.890;25.340;2023-02-15T23:51:52;1;0.8;0.2
57373;PMS7003;43964;53.890;25.340;2023-02-15T23:56:13;0.8;0.6;0
